Eborense — CSMP — position and weather

sailwx.info

Track history (hours):
 
Tides and Currents Weather Stations Pressure Air Temp Water Temp Dewpoint Dewpoint Depression Visibility Wind Speed Wind Dir Waves Ship Positions

Eborense

Last reported at 2016-May-28 21:11 UTC. Time now 2016-May-30 12:41 UTC.
Position N 38°41' W 009°12'.

Length 49 m; draft 1.2 m.

Type: Passenger vessel. MMSI: 263701750.

Date/timePositionNaut miles runAvg speedWind from/ knotsBaromVisibWave heightAir tempDewpointWater temp
2016-May-28 21:11N 38°41' W 009°12'1 1.5
2016-May-28 20:30N 38°42' W 009°12'2 1.7
2016-May-28 19:24N 38°41' W 009°14'0 0.0
2016-May-28 18:32N 38°41' W 009°14'1 0.9
2016-May-28 17:18N 38°41' W 009°12'1 0.9
2016-May-28 16:19N 38°41' W 009°11'2 2.7
2016-May-28 15:32N 38°41' W 009°09'0 0.0
2016-May-28 14:31N 38°41' W 009°09'0 0.0
2016-May-27 19:33N 38°41' W 009°09'3 2.5
2016-May-27 18:33N 38°42' W 009°12'0 0.3
2016-May-27 17:25N 38°41' W 009°12'0 0.3
2016-May-27 16:30N 38°42' W 009°12'3 2.5
2016-May-27 15:29N 38°41' W 009°09'0 0.2
2016-May-27 14:09N 38°41' W 009°09'0 0.0
2016-May-25 13:26N 38°41' W 009°09'0 0.0
2016-May-25 12:32N 38°41' W 009°09'0 0.0
2016-May-24 13:25N 38°41' W 009°09'0 0.0
2016-May-23 14:13N 38°41' W 009°09'0 0.0
2016-May-23 13:14N 38°41' W 009°09'0 0.0
2016-May-23 12:33N 38°41' W 009°09'  
Track history (hours):
 
Tides and Currents Weather Stations Pressure Air Temp Water Temp Dewpoint Dewpoint Depression Visibility Wind Speed Wind Dir Waves Ship Positions

Eborense

Last reported at 2016-May-28 21:11 UTC. Time now 2016-May-30 12:41 UTC.
Position N 38°41' W 009°12'.

Length 49 m; draft 1.2 m.

Type: Passenger vessel. MMSI: 263701750.

Date/timePositionNaut miles runAvg speedWind from/ knotsBaromVisibWave heightAir tempDewpointWater temp
2016-May-28 21:11N 38°41' W 009°12'1 1.5
2016-May-28 20:30N 38°42' W 009°12'2 1.7
2016-May-28 19:24N 38°41' W 009°14'0 0.0
2016-May-28 18:32N 38°41' W 009°14'1 0.9
2016-May-28 17:18N 38°41' W 009°12'1 0.9
2016-May-28 16:19N 38°41' W 009°11'2 2.7
2016-May-28 15:32N 38°41' W 009°09'0 0.0
2016-May-28 14:31N 38°41' W 009°09'0 0.0
2016-May-27 19:33N 38°41' W 009°09'3 2.5
2016-May-27 18:33N 38°42' W 009°12'0 0.3
2016-May-27 17:25N 38°41' W 009°12'0 0.3
2016-May-27 16:30N 38°42' W 009°12'3 2.5
2016-May-27 15:29N 38°41' W 009°09'0 0.2
2016-May-27 14:09N 38°41' W 009°09'0 0.0
2016-May-25 13:26N 38°41' W 009°09'0 0.0
2016-May-25 12:32N 38°41' W 009°09'0 0.0
2016-May-24 13:25N 38°41' W 009°09'0 0.0
2016-May-23 14:13N 38°41' W 009°09'0 0.0
2016-May-23 13:14N 38°41' W 009°09'0 0.0
2016-May-23 12:33N 38°41' W 009°09'  

Dump ship's entire track history